NCAI Airport Information

Runway Information
Runway 09 Length 4555 ft width 180 ft
Elevation 7 ft Threshold ft Heading 106
Runway 27 Length 4555 ft Width 180 ft
Elevation 13 ft Threshold ft Heading 286
Runway 14 Length 5920 ft width 100 ft
Elevation 14 ft Threshold ft Heading 154
Runway 32 Length 5920 ft Width 100 ft
Elevation 10 ft Threshold ft Heading 334
Airport Frequencies
Type CTAF Name CTAF Frequency 118.1 MHZ
Airport Navaids
Type NDB Name Aitutaki Frequency 320 KHZ
Airport Weather Information & NOTAM
ADDS - METARS form results

(0749 UTC 31 January 2023)
Data provider http://aviationweather.gov/metar/data/
 
METAR text: NCAI 310700Z AUTO 35003KT //// ////// 26/24 Q1011
Conditions at: NCAI (AMURI/AITUTAKI I, CK) observed 0700 UTC 31 January 2023
Temperature: 26.0°C (79°F)
Dewpoint: 24.0°C (75°F) [RH = 89%]
Pressure (altimeter): 29.85 inches Hg (1011.0 mb)
Winds: from the N (350 degrees) at 3 MPH (3 knots; 1.5 m/s)
Visibility: missing
Ceiling: unknown
Clouds: missing
Weather: no significant weather observed at this time